Time;durP1;ratioP1;P1;durP2;ratioP2;P2;SDS_P1;SDS_P2;PMS_P1;PMS_P2;Temp;Humidity;BMP_temperature;BMP_pressure;BME280_temperature;BME280_humidity;BME280_pressure;Samples;Min_cycle;Max_cycle;Signal;HPM_P1;HPM_P2
2023/01/11 00:00:41;;;;;;;20.88;8.77;;;;;;;8.46;100.00;100594.09;5054283;28;20033;-48
2023/01/11 00:03:06;;;;;;;17.35;8.38;;;;;;;8.48;100.00;100599.28;5055114;28;20083;-50
2023/01/11 00:05:40;;;;;;;13.25;8.30;;;;;;;8.53;100.00;100596.06;5054654;28;20055;-49
2023/01/11 00:08:07;;;;;;;17.58;8.60;;;;;;;8.54;100.00;100600.34;5054450;28;20036;-49
2023/01/11 00:10:32;;;;;;;18.47;8.40;;;;;;;8.54;100.00;100600.34;5054848;28;20100;-50
2023/01/11 00:12:59;;;;;;;17.85;8.15;;;;;;;8.55;100.00;100601.25;5054835;28;20112;-49
2023/01/11 00:15:24;;;;;;;15.70;8.43;;;;;;;8.58;100.00;100596.19;5054165;28;20025;-49
2023/01/11 00:17:49;;;;;;;15.95;7.38;;;;;;;8.64;100.00;100590.41;5054804;28;20036;-49
2023/01/11 00:20:16;;;;;;;13.35;7.45;;;;;;;8.68;100.00;100590.56;5054070;28;20026;-48
2023/01/11 00:22:41;;;;;;;16.37;7.80;;;;;;;8.70;100.00;100582.88;5054783;28;20082;-48
2023/01/11 00:25:07;;;;;;;12.82;6.78;;;;;;;8.72;100.00;100586.41;5054852;28;20025;-50
2023/01/11 00:27:32;;;;;;;13.20;6.60;;;;;;;8.72;100.00;100573.53;5053581;28;20025;-49
2023/01/11 00:29:58;;;;;;;12.77;6.40;;;;;;;8.77;100.00;100577.13;5054775;28;20031;-50
2023/01/11 00:32:23;;;;;;;11.93;4.85;;;;;;;8.81;100.00;100573.84;5054475;28;20096;-49
2023/01/11 00:34:48;;;;;;;13.43;5.90;;;;;;;8.82;100.00;100565.31;5053706;28;20435;-49
2023/01/11 00:37:14;;;;;;;10.88;5.40;;;;;;;8.83;100.00;100567.06;5054774;28;20418;-51
2023/01/11 00:39:39;;;;;;;10.50;5.03;;;;;;;8.83;100.00;100567.06;5054233;28;20029;-50
2023/01/11 00:50:16;;;;;;;10.70;5.65;;;;;;;8.67;100.00;100564.81;5053585;28;20039;-50
2023/01/11 00:52:42;;;;;;;12.85;6.13;;;;;;;8.65;100.00;100561.31;5054080;28;20025;-49
2023/01/11 00:55:08;;;;;;;12.77;6.43;;;;;;;8.60;100.00;100556.03;5054343;28;20063;-48
2023/01/11 00:57:33;;;;;;;10.65;6.13;;;;;;;8.59;100.00;100563.69;5053062;28;20050;-48
2023/01/11 00:59:59;;;;;;;11.27;6.90;;;;;;;8.56;100.00;100565.34;5054017;28;20024;-49
2023/01/11 01:02:24;;;;;;;15.75;7.32;;;;;;;8.53;100.00;100549.84;5053424;28;20472;-49
2023/01/11 01:04:50;;;;;;;12.63;7.32;;;;;;;8.52;100.00;100560.94;5053608;28;20056;-49
2023/01/11 01:07:15;;;;;;;14.00;7.35;;;;;;;8.50;100.00;100557.41;5053936;28;20444;-50
2023/01/11 01:09:40;;;;;;;23.05;8.75;;;;;;;8.48;100.00;100555.63;5052764;28;20036;-48
2023/01/11 01:12:07;;;;;;;18.13;8.95;;;;;;;8.47;100.00;100553.88;5054080;28;20032;-49
2023/01/11 01:14:33;;;;;;;19.58;8.63;;;;;;;8.50;100.00;100559.13;5053530;28;20032;-50
2023/01/11 01:17:01;;;;;;;21.35;11.55;;;;;;;8.51;100.00;100548.03;5052896;28;20029;-50
2023/01/11 01:19:27;;;;;;;;;;;;;;;8.54;100.00;100561.81;5054173;28;20067;-50
2023/01/11 01:21:55;;;;;;;17.58;10.07;;;;;;;8.53;100.00;100557.53;5053673;28;19917;-50
2023/01/11 01:24:20;;;;;;;20.10;10.40;;;;;;;8.57;100.00;100555.91;5052928;28;20021;-50
2023/01/11 01:26:45;;;;;;;19.80;11.20;;;;;;;8.60;100.00;100560.28;5053226;28;20035;-50
2023/01/11 01:29:12;;;;;;;17.05;10.05;;;;;;;8.62;100.00;100562.09;5053601;28;20028;-49
2023/01/11 01:31:37;;;;;;;24.27;13.13;;;;;;;8.64;100.00;100568.16;5052648;28;20021;-50
2023/01/11 01:34:03;;;;;;;65.47;35.88;;;;;;;8.66;100.00;100563.06;5053335;28;20095;-50
2023/01/11 01:36:28;;;;;;;33.42;17.30;;;;;;;8.71;100.00;100556.38;5053111;28;20389;-49
2023/01/11 01:38:53;;;;;;;24.65;14.20;;;;;;;8.71;100.00;100564.97;5052931;28;20059;-50
2023/01/11 01:41:19;;;;;;;22.23;13.60;;;;;;;8.76;100.00;100549.69;5053520;28;20028;-49
2023/01/11 01:43:49;;;;;;;25.33;11.73;;;;;;;8.79;100.00;100556.63;5053027;28;20499;-49
2023/01/11 01:46:16;;;;;;;24.25;13.27;;;;;;;8.82;100.00;100565.31;5052690;28;20029;-50
2023/01/11 01:48:47;;;;;;;17.75;11.27;;;;;;;8.85;100.00;100565.41;5052972;28;20049;-49
2023/01/11 01:51:19;;;;;;;15.18;9.18;;;;;;;8.89;100.00;100566.38;5053151;28;20027;-50
2023/01/11 01:53:49;;;;;;;12.90;10.00;;;;;;;8.93;100.00;100550.22;5052232;28;20068;-49
2023/01/11 01:56:24;;;;;;;16.58;9.95;;;;;;;8.96;100.00;100549.44;5053168;28;20070;-50
2023/01/11 01:58:54;;;;;;;15.88;8.80;;;;;;;8.98;100.00;100555.53;5052156;28;20075;-50
2023/01/11 02:04:08;;;;;;;16.33;9.38;;;;;;;9.02;100.00;100555.66;5053733;28;20047;-49
2023/01/11 02:06:34;;;;;;;16.98;9.10;;;;;;;9.05;100.00;100565.16;5051860;28;20128;-49
2023/01/11 02:09:06;;;;;;;16.63;12.63;;;;;;;9.05;100.00;100557.44;5052521;28;20108;-50
2023/01/11 02:11:31;;;;;;;14.73;8.80;;;;;;;9.10;100.00;100552.44;5052629;28;20115;-49
2023/01/11 02:14:07;;;;;;;18.30;11.68;;;;;;;9.11;100.00;100551.63;5052009;28;20532;-46
2023/01/11 02:16:33;;;;;;;15.43;8.77;;;;;;;9.12;100.00;100549.09;5052516;28;20055;-49
2023/01/11 02:18:59;;;;;;;13.65;8.32;;;;;;;9.15;100.00;100549.19;5052935;28;20391;-50
2023/01/11 02:21:40;;;;;;;19.33;9.00;;;;;;;9.14;100.00;100549.13;5052215;28;20040;-49
2023/01/11 02:24:14;;;;;;;26.65;15.65;;;;;;;9.18;100.00;100544.16;5052860;28;20553;-48
2023/01/11 02:26:57;;;;;;;17.17;9.45;;;;;;;9.19;100.00;100555.28;5051186;28;20499;-50
2023/01/11 02:29:42;;;;;;;17.23;10.05;;;;;;;9.21;100.00;100548.50;5052673;28;20492;-50
2023/01/11 02:32:31;;;;;;;16.65;10.55;;;;;;;9.21;100.00;100549.38;5052934;28;20025;-50
2023/01/11 02:35:19;;;;;;;15.95;9.73;;;;;;;9.23;100.00;100547.75;5051751;28;20464;-49
2023/01/11 02:37:59;;;;;;;17.70;8.55;;;;;;;9.27;100.00;100537.53;5052576;28;20040;-50
2023/01/11 02:40:40;;;;;;;32.45;13.90;;;;;;;9.28;100.00;100539.28;5052718;28;20025;-50
2023/01/11 02:46:16;;;;;;;15.00;8.30;;;;;;;9.32;100.00;100530.81;5052768;28;20040;-50
2023/01/11 02:48:55;;;;;;;56.78;22.85;;;;;;;9.32;100.00;100525.69;5051612;28;20078;-49
2023/01/11 02:51:34;;;;;;;13.57;7.82;;;;;;;9.33;100.00;100537.72;5052529;28;20388;-50
2023/01/11 02:54:06;;;;;;;13.98;7.97;;;;;;;9.33;100.00;100532.56;5052506;28;20406;-49
2023/01/11 02:56:37;;;;;;;15.40;7.60;;;;;;;9.34;100.00;100530.03;5051552;28;20029;-49
2023/01/11 02:59:06;;;;;;;25.85;12.35;;;;;;;9.38;100.00;100533.59;5052644;28;20033;-49
2023/01/11 03:01:31;;;;;;;15.90;7.40;;;;;;;9.38;100.00;100525.88;5052312;28;20047;-49
2023/01/11 03:03:57;;;;;;;29.27;13.43;;;;;;;9.41;100.00;100538.81;5051701;28;20383;-48
2023/01/11 03:06:26;;;;;;;44.05;18.98;;;;;;;9.41;100.00;100536.22;5052050;28;20053;-48
2023/01/11 03:09:07;;;;;;;13.68;7.75;;;;;;;9.46;100.00;100534.66;5052184;28;20056;-46
2023/01/11 03:15:00;;;;;;;36.08;16.15;;;;;;;9.48;100.00;100527.88;5051889;28;20110;-50
2023/01/11 03:17:34;;;;;;;14.52;6.85;;;;;;;9.48;100.00;100527.03;5051522;28;20453;-51
2023/01/11 03:20:27;;;;;;;17.08;8.48;;;;;;;9.50;100.00;100531.38;5054862;28;20033;-50
2023/01/11 03:23:20;;;;;;;75.88;27.52;;;;;;;9.52;100.00;100529.69;5055957;28;20082;-50
2023/01/11 03:26:08;;;;;;;40.85;17.00;;;;;;;9.55;100.00;100522.09;5055870;28;20044;-49
2023/01/11 03:28:39;;;;;;;;;;;;;;;9.60;100.00;100527.34;5056162;28;20119;-48
2023/01/11 03:31:28;;;;;;;27.85;12.23;;;;;;;9.58;100.00;100531.59;5055062;28;19912;-49
2023/01/11 03:34:01;;;;;;;18.85;9.43;;;;;;;9.62;100.00;100535.09;5055597;28;20499;-49
2023/01/11 03:36:37;;;;;;;47.80;18.85;;;;;;;9.63;100.00;100519.75;5055750;28;20465;-50
2023/01/11 03:39:16;;;;;;;19.20;9.05;;;;;;;9.65;100.00;100525.78;5054932;28;20072;-48
2023/01/11 03:41:42;;;;;;;41.30;16.45;;;;;;;9.64;100.00;100534.31;5055278;28;20386;-51
2023/01/11 03:44:11;;;;;;;13.88;6.25;;;;;;;9.64;100.00;100525.75;5055236;28;20029;-47
2023/01/11 03:46:43;;;;;;;23.00;10.02;;;;;;;9.67;100.00;100528.38;5055454;28;20082;-50
2023/01/11 03:49:15;;;;;;;31.30;12.02;;;;;;;9.66;100.00;100526.66;5055628;28;20025;-50
2023/01/11 03:51:43;;;;;;;68.88;22.98;;;;;;;9.66;100.00;100529.25;5054105;28;20496;-51
2023/01/11 03:54:14;;;;;;;45.88;16.20;;;;;;;9.66;100.00;100526.66;5055283;28;20029;-50
2023/01/11 03:56:55;;;;;;;37.38;13.50;;;;;;;9.66;100.00;100522.38;5055214;28;20025;-50
2023/01/11 03:59:20;;;;;;;17.85;7.82;;;;;;;9.65;100.00;100535.22;5054616;28;20469;-51
2023/01/11 04:01:46;;;;;;;22.98;8.98;;;;;;;9.66;100.00;100539.53;5054988;28;20036;-50
2023/01/11 04:04:11;;;;;;;11.68;5.78;;;;;;;9.66;100.00;100539.53;5055147;28;20388;-49
2023/01/11 04:06:38;;;;;;;76.75;23.38;;;;;;;9.67;100.00;100533.53;5054029;28;20052;-49
2023/01/11 04:09:03;;;;;;;14.52;6.85;;;;;;;9.66;100.00;100542.09;5054958;28;20029;-50
2023/01/11 04:11:29;;;;;;;37.15;13.85;;;;;;;9.66;100.00;100542.09;5054855;28;20035;-50
2023/01/11 04:13:54;;;;;;;36.65;14.88;;;;;;;9.66;100.00;100537.81;5054392;28;20029;-49
2023/01/11 04:16:20;;;;;;;27.40;12.57;;;;;;;9.67;100.00;100543.81;5054966;28;20029;-50
2023/01/11 04:18:45;;;;;;;32.20;14.05;;;;;;;9.67;100.00;100547.28;5054575;28;20526;-50
2023/01/11 04:21:10;;;;;;;11.77;7.00;;;;;;;9.69;100.00;100560.19;5054224;28;20025;-50
2023/01/11 04:23:36;;;;;;;19.05;10.52;;;;;;;9.70;100.00;100551.66;5054374;28;20443;-49
2023/01/11 04:26:01;;;;;;;22.63;12.65;;;;;;;9.72;100.00;100547.41;5054931;28;20361;-50
2023/01/11 04:28:26;;;;;;;15.55;9.35;;;;;;;9.74;100.00;100548.34;5053852;28;20415;-50
2023/01/11 04:30:52;;;;;;;17.60;10.02;;;;;;;9.78;100.00;100539.00;5053733;28;20025;-49
2023/01/11 04:33:18;;;;;;;18.15;9.95;;;;;;;9.78;100.00;100537.28;5054606;28;20036;-49
2023/01/11 04:35:44;;;;;;;16.20;10.50;;;;;;;9.80;100.00;100545.03;5053612;28;20037;-49
2023/01/11 04:38:09;;;;;;;16.67;9.82;;;;;;;9.81;100.00;100560.56;5054499;28;20021;-51
2023/01/11 04:40:35;;;;;;;15.30;9.10;;;;;;;9.82;100.00;100569.13;5053689;28;20067;-51
2023/01/11 04:43:01;;;;;;;17.73;9.95;;;;;;;9.84;100.00;100552.91;5054690;28;20052;-50
2023/01/11 04:45:27;;;;;;;14.15;8.15;;;;;;;9.86;100.00;100558.97;5054574;28;20029;-47
2023/01/11 04:47:55;;;;;;;12.63;7.80;;;;;;;9.88;100.00;100570.19;5053783;28;20037;-48
2023/01/11 04:50:20;;;;;;;;;;;;;;;9.93;100.00;100566.84;5054704;28;20051;-50
2023/01/11 04:52:46;;;;;;;12.70;6.72;;;;;;;9.93;100.00;100569.44;5054083;28;20327;-49
2023/01/11 04:55:11;;;;;;;15.43;6.80;;;;;;;9.93;100.00;100565.16;5053431;28;20032;-50
2023/01/11 04:57:36;;;;;;;12.52;7.20;;;;;;;9.96;100.00;100572.09;5053997;28;20074;-49
2023/01/11 05:00:07;;;;;;;11.07;7.15;;;;;;;9.97;100.00;100582.44;5054282;28;20017;-50
2023/01/11 05:02:32;;;;;;;14.10;8.45;;;;;;;10.00;100.00;100574.78;5053221;28;20025;-50
2023/01/11 05:04:58;;;;;;;12.63;7.28;;;;;;;9.97;100.00;100566.13;5053934;28;20094;-48
2023/01/11 05:07:23;;;;;;;13.45;6.20;;;;;;;9.99;100.00;100574.75;5054098;28;20457;-49
2023/01/11 05:09:48;;;;;;;11.95;7.43;;;;;;;10.00;100.00;100568.78;5053047;28;20032;-50
2023/01/11 05:12:13;;;;;;;9.43;6.80;;;;;;;9.99;100.00;100577.31;5053904;28;20460;-50
2023/01/11 05:14:39;;;;;;;12.75;7.80;;;;;;;9.98;100.00;100576.47;5053476;28;20040;-50
2023/01/11 05:17:04;;;;;;;10.95;7.93;;;;;;;9.97;100.00;100582.44;5053020;28;20372;-50
2023/01/11 05:19:29;;;;;;;10.65;7.95;;;;;;;9.97;100.00;100582.44;5053312;28;20029;-50
2023/01/11 05:21:54;;;;;;;13.18;8.30;;;;;;;9.96;100.00;100590.97;5053661;28;20465;-49
2023/01/11 05:24:20;;;;;;;14.32;9.02;;;;;;;9.95;100.00;100588.38;5053053;28;20021;-50
2023/01/11 05:26:48;;;;;;;17.83;10.82;;;;;;;9.97;100.00;100599.59;5053493;28;20024;-48
2023/01/11 05:29:19;;;;;;;16.10;11.43;;;;;;;9.96;100.00;100597.84;5053674;28;20029;-47
2023/01/11 05:31:44;;;;;;;19.27;12.07;;;;;;;9.95;100.00;100593.53;5052517;28;20500;-48
2023/01/11 05:34:12;;;;;;;18.20;12.40;;;;;;;9.95;100.00;100607.25;5053359;28;20021;-48
2023/01/11 05:36:38;;;;;;;20.70;13.15;;;;;;;9.95;100.00;100612.41;5053246;28;20032;-49
2023/01/11 05:39:04;;;;;;;19.40;12.77;;;;;;;9.94;100.00;100609.78;5053016;28;20036;-50
2023/01/11 05:41:29;;;;;;;19.73;12.75;;;;;;;9.93;100.00;100601.22;5053013;28;20037;-50
2023/01/11 05:46:42;;;;;;;25.88;14.73;;;;;;;9.91;100.00;100609.72;5053464;28;20171;-48
2023/01/11 05:49:08;;;;;;;24.10;13.75;;;;;;;9.91;100.00;100609.72;5053433;28;20024;-47
2023/01/11 05:51:34;;;;;;;23.92;14.27;;;;;;;9.89;100.00;100607.97;5052360;28;20032;-49
2023/01/11 05:54:03;;;;;;;21.00;12.65;;;;;;;9.87;100.00;100614.75;5053297;28;20040;-50
2023/01/11 05:56:29;;;;;;;26.70;14.15;;;;;;;9.87;100.00;100617.34;5052872;28;20036;-49
2023/01/11 05:58:54;;;;;;;28.15;12.95;;;;;;;9.84;100.00;100624.13;5052435;28;20108;-47
2023/01/11 06:01:22;;;;;;;28.42;12.35;;;;;;;9.81;100.00;100614.59;5052937;28;20032;-48
2023/01/11 06:03:47;;;;;;;32.40;12.20;;;;;;;9.77;100.00;100617.03;5052776;28;20566;-50
2023/01/11 06:06:14;;;;;;;32.08;10.30;;;;;;;9.71;100.00;100617.75;5052134;28;20125;-50
2023/01/11 06:08:39;;;;;;;28.48;8.82;;;;;;;9.62;100.00;100618.34;5052714;28;20369;-49
2023/01/11 06:11:04;;;;;;;27.80;8.27;;;;;;;9.54;100.00;100633.53;5052948;28;20029;-50
2023/01/11 06:13:30;;;;;;;30.23;7.75;;;;;;;9.50;100.00;100639.44;5051800;28;20052;-49
2023/01/11 06:16:03;;;;;;;35.38;8.43;;;;;;;9.43;100.00;100637.47;5053009;28;20070;-50
2023/01/11 06:18:30;;;;;;;34.95;7.57;;;;;;;9.40;100.00;100645.13;5052354;28;20465;-50
2023/01/11 06:20:56;;;;;;;38.17;7.78;;;;;;;9.33;100.00;100651.75;5052142;28;20036;-50
2023/01/11 06:23:22;;;;;;;33.80;7.40;;;;;;;9.30;100.00;100650.78;5053348;28;20028;-50
2023/01/11 06:25:48;;;;;;;34.85;6.78;;;;;;;9.27;100.00;100661.84;5052493;28;20047;-50
2023/01/11 06:28:13;;;;;;;43.33;7.75;;;;;;;9.22;100.00;100669.41;5052100;28;20544;-49
2023/01/11 06:30:39;;;;;;;39.63;7.65;;;;;;;9.20;100.00;100671.06;5052589;28;20388;-49
2023/01/11 06:33:05;;;;;;;51.80;8.48;;;;;;;9.14;100.00;100662.28;5052076;28;20051;-47
2023/01/11 06:35:38;;;;;;;41.83;7.70;;;;;;;9.08;100.00;100670.66;5052530;28;20074;-50
2023/01/11 06:38:05;;;;;;;39.38;7.88;;;;;;;9.04;100.00;100673.97;5052753;28;20075;-50
2023/01/11 06:40:31;;;;;;;37.23;7.87;;;;;;;9.04;100.00;100679.09;5051673;28;20033;-50
2023/01/11 06:42:56;;;;;;;34.28;6.65;;;;;;;9.00;100.00;100698.69;5052492;28;20188;-48
2023/01/11 06:45:21;;;;;;;40.55;7.55;;;;;;;8.95;100.00;100689.06;5052804;28;20104;-50
2023/01/11 06:47:47;;;;;;;40.40;7.63;;;;;;;8.92;100.00;100689.81;5051460;28;20029;-50
2023/01/11 06:50:12;;;;;;;45.35;8.32;;;;;;;8.89;100.00;100685.47;5052572;28;20495;-50
2023/01/11 06:52:38;;;;;;;38.85;7.97;;;;;;;8.85;100.00;100683.63;5052174;28;20071;-50
2023/01/11 06:55:03;;;;;;;49.45;7.50;;;;;;;8.83;100.00;100703.28;5054458;28;20602;-50
2023/01/11 06:57:29;;;;;;;45.95;6.80;;;;;;;8.81;100.00;100733.16;5056027;28;20025;-48
2023/01/11 06:59:54;;;;;;;44.83;7.45;;;;;;;8.81;100.00;100722.88;5056644;28;20111;-49
2023/01/11 07:02:19;;;;;;;49.88;7.38;;;;;;;8.81;100.00;100725.47;5055542;28;20021;-50
2023/01/11 07:04:45;;;;;;;54.58;7.60;;;;;;;8.77;100.00;100713.31;5055951;28;20112;-49
2023/01/11 07:07:10;;;;;;;48.85;7.13;;;;;;;8.75;100.00;100722.66;5056395;28;20025;-50
2023/01/11 07:09:36;;;;;;;49.20;7.32;;;;;;;8.74;100.00;100726.09;5055174;28;20052;-48
2023/01/11 07:12:02;;;;;;;52.72;8.07;;;;;;;8.73;100.00;100720.06;5056159;28;20100;-49
2023/01/11 07:14:27;;;;;;;49.45;7.40;;;;;;;8.69;100.00;100722.47;5055925;28;20047;-47
2023/01/11 07:16:52;;;;;;;58.33;8.50;;;;;;;8.71;100.00;100733.66;5055219;28;20107;-50
2023/01/11 07:19:18;;;;;;;57.70;8.50;;;;;;;8.73;100.00;100743.16;5056053;28;20056;-49
2023/01/11 07:21:43;;;;;;;52.30;7.45;;;;;;;8.71;100.00;100743.94;5055764;28;20036;-50
2023/01/11 07:24:08;;;;;;;46.60;8.25;;;;;;;8.72;100.00;100749.13;5055204;28;20028;-51
2023/01/11 07:26:39;;;;;;;57.83;8.60;;;;;;;8.71;100.00;100746.50;5055714;28;20029;-49
2023/01/11 07:29:05;;;;;;;61.40;8.77;;;;;;;8.72;100.00;100767.13;5056092;28;20025;-49
2023/01/11 07:31:30;;;;;;;52.97;8.07;;;;;;;8.69;100.00;100763.59;5054699;28;20032;-49
2023/01/11 07:33:55;;;;;;;58.10;8.55;;;;;;;8.66;100.00;100763.47;5055838;28;20064;-49
2023/01/11 07:36:21;;;;;;;58.67;9.38;;;;;;;8.62;100.00;100762.47;5054970;28;20025;-49
2023/01/11 07:38:46;;;;;;;59.78;8.27;;;;;;;8.61;100.00;100764.97;5055315;28;20127;-50
2023/01/11 07:43:55;;;;;;;60.17;8.45;;;;;;;8.50;100.00;100783.44;5055080;28;20095;-50
2023/01/11 07:46:20;;;;;;;55.58;8.48;;;;;;;8.44;100.00;100783.19;5055607;28;20025;-48
2023/01/11 07:48:46;;;;;;;61.72;9.02;;;;;;;8.40;100.00;100786.47;5055218;28;20107;-50
2023/01/11 07:51:12;;;;;;;53.80;7.65;;;;;;;8.37;100.00;100789.78;5054730;28;20458;-50
2023/01/11 07:53:37;;;;;;;53.05;8.35;;;;;;;8.35;100.00;100796.56;5055031;28;20104;-51
2023/01/11 07:56:03;;;;;;;52.03;9.10;;;;;;;8.33;100.00;100805.03;5055229;28;20060;-50
2023/01/11 07:58:28;;;;;;;56.90;8.45;;;;;;;8.31;100.00;100811.78;5054166;28;20453;-49
2023/01/11 08:00:53;;;;;;;54.22;8.63;;;;;;;8.26;100.00;100818.44;5055302;28;20075;-50
2023/01/11 08:03:18;;;;;;;51.33;9.07;;;;;;;8.25;100.00;100833.00;5055392;28;20056;-49
2023/01/11 08:05:49;;;;;;;52.72;8.52;;;;;;;8.21;100.00;100828.53;5052933;28;20515;-50
2023/01/11 08:08:14;;;;;;;49.17;7.38;;;;;;;8.16;100.00;100822.34;5055041;28;20068;-49
2023/01/11 08:10:40;;;;;;;46.78;7.22;;;;;;;8.14;100.00;100822.28;5054861;28;20045;-46
2023/01/11 08:15:48;;;;;;;56.45;8.25;;;;;;;8.06;100.00;100833.97;5054550;28;20035;-50
2023/01/11 08:18:15;;;;;;;54.20;8.70;;;;;;;8.05;100.00;100840.75;5054902;28;20105;-50
2023/01/11 08:20:41;;;;;;;37.75;6.95;;;;;;;8.03;100.00;100847.53;5053771;28;20457;-50
2023/01/11 08:23:08;;;;;;;48.25;7.68;;;;;;;7.98;100.00;100854.19;5054808;28;20039;-49
2023/01/11 08:25:34;;;;;;;53.00;8.00;;;;;;;7.97;100.00;100862.69;5053971;28;20025;-50
2023/01/11 08:28:01;;;;;;;38.60;6.75;;;;;;;7.93;100.00;100865.94;5054613;28;20066;-48
2023/01/11 08:30:27;;;;;;;55.00;8.60;;;;;;;7.93;100.00;100875.31;5054577;28;20423;-50
2023/01/11 08:32:53;;;;;;;55.08;7.85;;;;;;;7.94;100.00;100882.22;5053992;28;20017;-49
2023/01/11 08:35:18;;;;;;;50.50;7.95;;;;;;;7.89;100.00;100888.03;5054550;28;20037;-49
2023/01/11 08:37:43;;;;;;;47.40;8.30;;;;;;;7.86;100.00;100890.50;5054195;28;20025;-50
2023/01/11 08:40:09;;;;;;;47.90;8.23;;;;;;;7.83;100.00;100900.63;5053989;28;20377;-49
2023/01/11 08:42:34;;;;;;;43.22;7.40;;;;;;;7.79;100.00;100898.75;5054305;28;20035;-50
2023/01/11 08:45:00;;;;;;;49.15;7.63;;;;;;;7.78;100.00;100917.50;5054474;28;20031;-50
2023/01/11 08:47:25;;;;;;;50.85;8.20;;;;;;;7.70;100.00;100909.47;5053709;28;20043;-47
2023/01/11 08:49:51;;;;;;;73.05;8.25;;;;;;;7.70;100.00;100911.19;5054130;28;20052;-49
2023/01/11 08:52:16;;;;;;;63.70;7.43;;;;;;;7.67;100.00;100913.59;5054193;28;20017;-49
2023/01/11 08:54:42;;;;;;;48.42;8.20;;;;;;;7.62;100.00;100920.22;5053270;28;20457;-46
2023/01/11 08:57:07;;;;;;;53.13;8.90;;;;;;;7.60;100.00;100933.00;5054314;28;20453;-50
2023/01/11 08:59:32;;;;;;;52.00;7.53;;;;;;;7.60;100.00;100937.25;5053931;28;20056;-50
2023/01/11 09:01:58;;;;;;;45.53;7.45;;;;;;;7.57;100.00;100938.88;5053408;28;20021;-49
2023/01/11 09:04:24;;;;;;;65.07;8.23;;;;;;;7.57;100.00;100938.88;5053949;28;20021;-49
2023/01/11 09:06:50;;;;;;;42.03;7.07;;;;;;;7.56;100.00;100947.38;5053610;28;20094;-49
2023/01/11 09:09:15;;;;;;;45.08;6.88;;;;;;;7.56;100.00;100941.38;5053396;28;20444;-50
2023/01/11 09:11:52;;;;;;;44.60;7.28;;;;;;;7.54;100.00;100941.31;5053531;28;20021;-50
2023/01/11 09:14:18;;;;;;;53.08;8.52;;;;;;;7.52;100.00;100940.34;5054082;28;20033;-49
2023/01/11 09:16:43;;;;;;;45.00;6.78;;;;;;;7.50;100.00;100936.88;5052658;28;20039;-50
2023/01/11 09:19:08;;;;;;;59.08;7.25;;;;;;;7.49;100.00;100937.66;5053613;28;20017;-50
2023/01/11 09:21:33;;;;;;;45.50;8.15;;;;;;;7.49;100.00;100944.47;5053628;28;20062;-49
2023/01/11 09:23:59;;;;;;;65.00;8.50;;;;;;;7.47;100.00;100936.72;5053076;28;20079;-50
2023/01/11 09:26:24;;;;;;;53.55;7.03;;;;;;;7.45;100.00;100945.16;5053555;28;20112;-47
2023/01/11 09:28:49;;;;;;;47.85;7.28;;;;;;;7.41;100.00;100947.59;5052660;28;20061;-48
2023/01/11 09:31:15;;;;;;;60.38;8.18;;;;;;;7.39;100.00;100958.59;5053798;28;20071;-49
2023/01/11 09:33:40;;;;;;;59.75;8.32;;;;;;;7.38;100.00;100962.81;5052980;28;20068;-48
2023/01/11 09:36:06;;;;;;;53.85;7.70;;;;;;;7.34;100.00;100962.63;5052914;28;20021;-49
2023/01/11 09:38:32;;;;;;;60.13;8.02;;;;;;;7.31;100.00;100967.59;5052985;28;20029;-49
2023/01/11 09:41:32;;;;;;;56.63;8.38;;;;;;;7.32;100.00;100971.94;5053530;28;20025;-48
2023/01/11 09:44:14;;;;;;;48.15;8.35;;;;;;;7.37;100.00;100978.16;5052607;28;20037;-49
2023/01/11 09:46:42;;;;;;;56.95;8.98;;;;;;;7.41;100.00;100980.03;5052954;28;20460;-48
2023/01/11 09:49:28;;;;;;;;;;;;;;;7.49;100.00;100983.81;5053735;28;20025;-50
2023/01/11 09:52:13;;;;;;;53.25;7.63;;;;;;;7.54;100.00;100986.56;5051996;28;19913;-47
2023/01/11 09:54:39;;;;;;;48.90;7.97;;;;;;;7.52;100.00;100991.66;5052716;28;20060;-48
2023/01/11 09:57:29;;;;;;;47.97;7.47;;;;;;;7.50;100.00;100987.25;5052548;28;20060;-49
2023/01/11 10:00:35;;;;;;;56.40;8.30;;;;;;;7.52;100.00;100985.66;5053100;28;20032;-50
2023/01/11 10:03:20;;;;;;;44.92;6.63;;;;;;;7.67;100.00;100988.88;5052845;28;20119;-46
2023/01/11 10:06:05;;;;;;;44.53;7.57;;;;;;;7.88;100.00;100991.50;5051899;28;20037;-50
2023/01/11 10:08:46;;;;;;;52.40;7.68;;;;;;;8.08;100.00;100988.88;5052740;28;20108;-49
2023/01/11 10:11:30;;;;;;;55.33;7.75;;;;;;;8.29;100.00;100988.91;5052164;28;20066;-48
2023/01/11 10:14:13;;;;;;;40.72;6.45;;;;;;;8.51;100.00;100997.53;5052807;28;20543;-48
2023/01/11 10:17:19;;;;;;;53.45;6.80;;;;;;;8.67;100.00;100991.31;5052825;28;20045;-50
2023/01/11 10:19:48;;;;;;;59.75;7.97;;;;;;;8.80;100.00;100996.09;5045421;28;20492;-48
2023/01/11 10:22:19;;;;;;;37.55;6.85;;;;;;;8.90;100.00;101000.78;5052732;28;20354;-49
2023/01/11 10:25:17;;;;;;;42.28;7.13;;;;;;;8.96;100.00;100996.69;5052665;28;20028;-49
2023/01/11 10:28:12;;;;;;;60.22;6.47;;;;;;;8.92;100.00;100998.28;5044809;28;20068;-49
2023/01/11 10:34:17;;;;;;;44.55;7.43;;;;;;;8.87;100.00;100992.06;5049590;28;20043;-49
2023/01/11 10:37:22;;;;;;;46.67;7.55;;;;;;;8.92;100.00;100997.41;5052538;28;20091;-48
2023/01/11 10:40:30;;;;;;;44.75;7.55;;;;;;;8.94;100.00;100994.06;5051611;28;20033;-50
2023/01/11 10:43:02;;;;;;;39.03;7.15;;;;;;;8.97;100.00;100996.75;5052756;28;20025;-50
2023/01/11 10:45:50;;;;;;;41.45;7.18;;;;;;;9.03;100.00;100997.00;5052423;28;20032;-47
2023/01/11 10:48:26;;;;;;;49.30;8.13;;;;;;;9.08;100.00;100999.75;5051840;28;20377;-46
2023/01/11 10:51:19;;;;;;;45.40;7.47;;;;;;;9.17;100.00;100999.22;5052210;28;20025;-48
2023/01/11 10:54:13;;;;;;;48.38;8.77;;;;;;;9.26;100.00;101003.81;5051349;28;20495;-47
2023/01/11 10:57:10;;;;;;;38.53;7.43;;;;;;;9.34;100.00;101002.44;5052188;28;20060;-50
2023/01/11 10:59:42;;;;;;;44.50;7.88;;;;;;;9.36;100.00;100996.53;5052071;28;20377;-48
2023/01/11 11:02:44;;;;;;;35.35;7.47;;;;;;;9.49;100.00;101008.13;5051878;28;20399;-48
2023/01/11 11:05:45;;;;;;;41.47;7.03;;;;;;;9.65;98.66;101004.41;5052213;28;20051;-50
2023/01/11 11:08:29;;;;;;;39.33;7.40;;;;;;;9.74;97.28;101010.72;5051824;28;20017;-49
2023/01/11 11:11:04;;;;;;;36.20;6.53;;;;;;;9.87;96.68;101010.34;5052258;28;20545;-50
2023/01/11 11:13:56;;;;;;;36.97;7.00;;;;;;;9.93;95.20;101014.81;5051951;28;20033;-51
2023/01/11 11:16:22;;;;;;;43.45;7.88;;;;;;;9.96;93.13;101020.94;5051595;28;20380;-51
2023/01/11 11:18:48;;;;;;;42.17;6.63;;;;;;;9.94;92.65;101021.72;5051873;28;20036;-48
2023/01/11 11:21:25;;;;;;;36.53;6.10;;;;;;;9.89;92.35;101019.84;5052318;28;20292;-49
2023/01/11 11:23:57;;;;;;;40.58;6.95;;;;;;;9.97;92.75;101004.69;5052071;28;20024;-50
2023/01/11 11:26:27;;;;;;;43.33;6.30;;;;;;;10.05;91.82;100999.78;5052097;28;20063;-51
2023/01/11 11:29:07;;;;;;;35.75;6.35;;;;;;;10.10;91.45;101005.97;5051492;28;20029;-50
2023/01/11 11:31:36;;;;;;;39.53;7.53;;;;;;;10.10;91.02;101008.56;5051923;28;20075;-50
2023/01/11 11:34:07;;;;;;;37.45;6.57;;;;;;;10.08;88.89;101015.34;5051985;28;20377;-47
2023/01/11 11:36:47;;;;;;;45.85;7.03;;;;;;;10.12;90.71;101016.31;5051140;28;20043;-49
2023/01/11 11:39:27;;;;;;;41.88;7.07;;;;;;;10.23;89.97;101019.28;5052265;28;20031;-51
2023/01/11 11:42:15;;;;;;;39.03;6.45;;;;;;;10.23;89.87;101014.13;5054347;28;20096;-48
2023/01/11 11:44:40;;;;;;;43.13;6.65;;;;;;;10.10;87.76;101011.13;5054487;28;20035;-48
2023/01/11 11:47:14;;;;;;;40.88;6.82;;;;;;;10.01;87.65;101028.84;5055382;28;20021;-48
2023/01/11 11:49:40;;;;;;;35.55;6.22;;;;;;;9.88;87.39;101019.81;5054435;28;20048;-48
2023/01/11 11:52:12;;;;;;;37.85;6.45;;;;;;;9.78;87.04;101025.47;5055547;28;20032;-48
2023/01/11 11:54:56;;;;;;;41.95;7.38;;;;;;;9.71;88.43;101024.38;5055090;28;20465;-48
2023/01/11 11:57:25;;;;;;;42.80;7.18;;;;;;;9.51;87.84;101027.06;5054748;28;20028;-47
2023/01/11 12:00:02;;;;;;;46.95;7.90;;;;;;;9.38;89.85;101030.00;5055183;28;20017;-47